Time;durP1;ratioP1;P1;durP2;ratioP2;P2;SDS_P1;SDS_P2;PMS_P1;PMS_P2;Temp;Humidity;BMP_temperature;BMP_pressure;BME280_temperature;BME280_humidity;BME280_pressure;Samples;Min_cycle;Max_cycle;Signal;HPM_P1;HPM_P2
2021/03/19 00:01:32;;;;;;;9.50;6.80;;;6.50;39.00;;;;;;5070323;28;20204;-72
2021/03/19 00:03:57;;;;;;;6.70;6.03;;;6.40;39.70;;;;;;5069917;28;20574;-72
2021/03/19 00:06:23;;;;;;;7.40;6.70;;;6.20;40.60;;;;;;5070065;28;20495;-76
2021/03/19 00:08:50;;;;;;;7.13;6.63;;;6.30;41.10;;;;;;5070785;28;20184;-72
2021/03/19 00:11:16;;;;;;;7.07;6.40;;;6.20;40.90;;;;;;5071732;28;20825;-71
2021/03/19 00:13:42;;;;;;;6.43;5.93;;;6.30;40.30;;;;;;5070842;28;20459;-72
2021/03/19 00:16:07;;;;;;;7.20;6.13;;;6.30;40.10;;;;;;5071552;28;20414;-72
2021/03/19 00:18:34;;;;;;;7.60;6.93;;;6.50;39.70;;;;;;5072110;28;20542;-73
2021/03/19 00:21:00;;;;;;;6.83;6.30;;;6.20;41.20;;;;;;5072126;28;20250;-72
2021/03/19 00:23:25;;;;;;;7.83;7.10;;;6.20;41.70;;;;;;5070545;28;20479;-72
2021/03/19 00:25:51;;;;;;;8.37;6.93;;;6.10;41.60;;;;;;5071284;28;20201;-72
2021/03/19 00:28:17;;;;;;;8.40;7.00;;;6.10;42.40;;;;;;5071506;28;20179;-72
2021/03/19 00:30:44;;;;;;;6.67;6.17;;;6.30;40.90;;;;;;5071612;28;20228;-72
2021/03/19 00:33:10;;;;;;;8.07;7.27;;;6.20;42.20;;;;;;5071422;28;20210;-72
2021/03/19 00:35:36;;;;;;;7.97;7.20;;;5.60;42.90;;;;;;5070178;28;20522;-72
2021/03/19 00:38:03;;;;;;;9.10;8.20;;;5.90;43.10;;;;;;5071183;28;20520;-71
2021/03/19 00:40:29;;;;;;;8.10;7.50;;;6.10;42.20;;;;;;5071408;28;20217;-71
2021/03/19 00:42:55;;;;;;;8.50;7.50;;;5.80;41.90;;;;;;5071236;28;20508;-71
2021/03/19 00:45:22;;;;;;;7.00;6.50;;;5.60;43.40;;;;;;5071349;28;20513;-71
2021/03/19 00:47:52;;;;;;;7.80;7.00;;;5.60;43.70;;;;;;5071116;28;20449;-71
2021/03/19 00:50:43;;;;;;;6.97;6.37;;;5.50;43.70;;;;;;5071256;28;20463;-71
2021/03/19 00:53:09;;;;;;;7.23;6.60;;;5.40;43.70;;;;;;5070748;28;20465;-72
2021/03/19 00:55:35;;;;;;;6.60;5.83;;;5.40;43.80;;;;;;5071223;28;20912;-71
2021/03/19 00:58:01;;;;;;;8.00;7.23;;;5.30;45.40;;;;;;5071014;28;20492;-72
2021/03/19 01:00:29;;;;;;;7.47;6.80;;;5.60;44.80;;;;;;5071070;28;20405;-71
2021/03/19 01:02:54;;;;;;;8.77;6.70;;;5.40;44.30;;;;;;5071037;28;20206;-71
2021/03/19 01:05:23;;;;;;;7.97;7.37;;;5.40;44.60;;;;;;5071149;28;20406;-72
2021/03/19 01:07:50;;;;;;;6.60;6.10;;;5.30;45.10;;;;;;5070712;28;20202;-72
2021/03/19 01:10:27;;;;;;;7.80;6.87;;;5.20;45.50;;;;;;5071005;28;20846;-72
2021/03/19 01:12:53;;;;;;;7.70;6.90;;;4.90;46.80;;;;;;5070863;28;21005;-72
2021/03/19 01:15:20;;;;;;;6.90;6.33;;;5.10;45.50;;;;;;5070997;28;20485;-72
2021/03/19 01:17:46;;;;;;;8.10;7.30;;;5.30;46.00;;;;;;5070720;28;20179;-72
2021/03/19 01:20:13;;;;;;;6.97;6.47;;;5.30;45.90;;;;;;5070947;28;20406;-73
2021/03/19 01:22:39;;;;;;;6.83;6.27;;;5.10;45.80;;;;;;5070855;28;20219;-72
2021/03/19 01:25:07;;;;;;;7.03;6.47;;;5.20;45.90;;;;;;5070925;28;20406;-72
2021/03/19 01:27:33;;;;;;;6.80;6.10;;;5.10;46.60;;;;;;5070726;28;20981;-71
2021/03/19 01:29:59;;;;;;;6.17;5.80;;;4.90;46.90;;;;;;5070918;28;20409;-71
2021/03/19 01:32:24;;;;;;;7.13;6.27;;;4.90;47.20;;;;;;5070668;28;20741;-72
2021/03/19 01:34:50;;;;;;;7.50;6.77;;;5.10;47.20;;;;;;5070809;28;20220;-71
2021/03/19 01:37:15;;;;;;;6.70;6.10;;;5.20;45.50;;;;;;5072594;28;20535;-71
2021/03/19 01:39:41;;;;;;;7.60;6.60;;;5.30;46.00;;;;;;5074989;28;20174;-72
2021/03/19 01:42:09;;;;;;;7.47;6.90;;;5.30;46.10;;;;;;5074842;28;20191;-73
2021/03/19 01:45:05;;;;;;;7.33;6.77;;;5.40;44.50;;;;;;5074860;28;20401;-73
2021/03/19 01:48:08;;;;;;;6.43;5.93;;;5.40;43.70;;;;;;5073439;28;20508;-72
2021/03/19 01:51:11;;;;;;;8.00;7.30;;;5.50;43.40;;;;;;5073328;28;20532;-72
2021/03/19 01:54:14;;;;;;;7.03;6.53;;;5.60;43.10;;;;;;5074500;28;20456;-71
2021/03/19 01:57:17;;;;;;;8.00;7.40;;;5.60;43.20;;;;;;5074543;28;20401;-72
2021/03/19 02:00:20;;;;;;;9.07;8.27;;;5.30;44.00;;;;;;5074525;28;20401;-72
2021/03/19 02:03:23;;;;;;;8.30;7.50;;;5.30;43.70;;;;;;5074431;28;20829;-72
2021/03/19 02:06:26;;;;;;;8.00;7.37;;;5.30;44.00;;;;;;5074487;28;20409;-71
2021/03/19 02:09:29;;;;;;;8.90;8.00;;;5.10;44.20;;;;;;5074120;28;20416;-71
2021/03/19 02:12:31;;;;;;;8.40;7.60;;;5.10;44.50;;;;;;5074360;28;20432;-71
2021/03/19 02:15:34;;;;;;;7.90;7.30;;;5.10;44.50;;;;;;5074397;28;20421;-71
2021/03/19 02:18:37;;;;;;;9.67;8.87;;;5.10;45.70;;;;;;5074303;28;20416;-71
2021/03/19 02:21:41;;;;;;;9.33;8.40;;;5.10;45.40;;;;;;5074654;28;20405;-71
2021/03/19 02:24:44;;;;;;;9.37;8.57;;;5.40;43.70;;;;;;5074522;28;20412;-71
2021/03/19 02:27:47;;;;;;;8.57;7.87;;;5.50;43.30;;;;;;5074414;28;20410;-71
2021/03/19 02:30:50;;;;;;;8.57;7.70;;;5.30;43.60;;;;;;5074372;28;20914;-71
2021/03/19 02:33:15;;;;;;;9.07;8.23;;;4.80;44.40;;;;;;5074233;28;20464;-72
2021/03/19 02:35:56;;;;;;;9.77;8.87;;;5.00;44.30;;;;;;5074361;28;20405;-72
2021/03/19 02:38:22;;;;;;;7.70;7.10;;;5.10;43.80;;;;;;5073674;28;20191;-71
2021/03/19 02:40:49;;;;;;;10.67;9.57;;;5.00;44.10;;;;;;5074046;28;20418;-72
2021/03/19 02:43:15;;;;;;;9.93;9.00;;;5.10;44.30;;;;;;5074095;28;20439;-71
2021/03/19 02:45:41;;;;;;;8.73;8.03;;;5.20;43.90;;;;;;5074007;28;20433;-71
2021/03/19 02:48:08;;;;;;;8.93;8.07;;;5.30;44.10;;;;;;5073178;28;20815;-71
2021/03/19 02:50:34;;;;;;;11.40;10.33;;;5.10;44.50;;;;;;5073797;28;20472;-71
2021/03/19 02:52:59;;;;;;;10.97;9.87;;;5.20;44.80;;;;;;5073376;28;20461;-71
2021/03/19 02:55:25;;;;;;;9.20;8.30;;;5.00;44.70;;;;;;5073520;28;20172;-72
2021/03/19 02:57:50;;;;;;;9.90;9.00;;;5.00;44.10;;;;;;5073349;28;20189;-71
2021/03/19 03:00:20;;;;;;;11.63;9.27;;;4.90;45.70;;;;;;5073423;28;20234;-72
2021/03/19 03:02:46;;;;;;;10.40;9.60;;;5.10;44.60;;;;;;5073168;28;20198;-71
2021/03/19 03:05:11;;;;;;;9.80;8.83;;;5.50;44.20;;;;;;5073426;28;20406;-72
2021/03/19 03:07:38;;;;;;;9.87;8.97;;;5.30;43.10;;;;;;5073090;28;20175;-71
2021/03/19 03:10:07;;;;;;;9.83;9.03;;;5.30;42.80;;;;;;5073338;28;20167;-72
2021/03/19 03:12:33;;;;;;;11.03;10.13;;;5.20;42.90;;;;;;5073132;28;20955;-71
2021/03/19 03:14:58;;;;;;;9.80;8.90;;;5.00;43.50;;;;;;5073147;28;20501;-71
2021/03/19 03:17:24;;;;;;;10.40;9.50;;;4.80;43.90;;;;;;5072976;28;20228;-72
2021/03/19 03:19:49;;;;;;;10.17;9.17;;;4.80;44.90;;;;;;5073015;28;20171;-72
2021/03/19 03:22:15;;;;;;;11.33;10.10;;;4.90;44.10;;;;;;5073093;28;20198;-71
2021/03/19 03:24:41;;;;;;;10.13;9.00;;;5.10;44.30;;;;;;5073027;28;20178;-71
2021/03/19 03:27:08;;;;;;;9.53;8.70;;;5.00;43.50;;;;;;5071625;28;20426;-71
2021/03/19 03:29:35;;;;;;;9.60;8.70;;;5.00;44.20;;;;;;5072924;28;20163;-70
2021/03/19 03:32:00;;;;;;;9.73;8.93;;;5.30;43.10;;;;;;5072926;28;20799;-71
2021/03/19 03:34:26;;;;;;;10.40;9.43;;;5.30;43.20;;;;;;5072936;28;20453;-71
2021/03/19 03:36:52;;;;;;;10.37;9.57;;;5.20;43.50;;;;;;5073053;28;20167;-71
2021/03/19 03:39:25;;;;;;;10.17;9.17;;;5.20;42.30;;;;;;5072690;28;20261;-70
2021/03/19 03:41:52;;;;;;;9.63;8.80;;;5.20;42.90;;;;;;5072617;28;20456;-72
2021/03/19 03:44:18;;;;;;;10.87;10.00;;;5.40;43.80;;;;;;5072803;28;20760;-72
2021/03/19 03:46:45;;;;;;;11.47;9.63;;;5.50;42.00;;;;;;5072606;28;20418;-72
2021/03/19 03:49:15;;;;;;;9.70;9.00;;;5.40;41.70;;;;;;5072326;28;20475;-72
2021/03/19 03:51:40;;;;;;;8.93;8.20;;;5.20;42.20;;;;;;5072455;28;20421;-72
2021/03/19 03:54:06;;;;;;;10.57;9.67;;;5.00;42.60;;;;;;5072332;28;20463;-71
2021/03/19 03:56:32;;;;;;;11.23;9.07;;;5.10;42.40;;;;;;5072204;28;20171;-71
2021/03/19 03:58:58;;;;;;;10.07;9.10;;;5.30;43.20;;;;;;5071292;28;20172;-72
2021/03/19 04:01:24;;;;;;;11.30;10.33;;;5.10;42.50;;;;;;5070788;28;20854;-71
2021/03/19 04:03:50;;;;;;;10.40;9.50;;;5.00;44.10;;;;;;5072069;28;20194;-71
2021/03/19 04:06:17;;;;;;;12.13;11.10;;;5.00;43.50;;;;;;5070856;28;21113;-70
2021/03/19 04:08:42;;;;;;;11.13;9.90;;;5.00;43.40;;;;;;5071952;28;20481;-71
2021/03/19 04:11:12;;;;;;;10.73;9.83;;;5.10;43.80;;;;;;5071823;28;20497;-71
2021/03/19 04:13:38;;;;;;;10.47;9.57;;;4.80;44.60;;;;;;5071974;28;20238;-72
2021/03/19 04:16:05;;;;;;;11.40;10.13;;;4.90;44.30;;;;;;5072056;28;20974;-71
2021/03/19 04:18:31;;;;;;;11.17;10.23;;;4.70;44.50;;;;;;5071700;28;20405;-73
2021/03/19 04:20:59;;;;;;;10.90;9.90;;;4.60;44.40;;;;;;5071857;28;20534;-71
2021/03/19 04:23:27;;;;;;;11.33;10.40;;;4.70;44.60;;;;;;5071592;28;20526;-70
2021/03/19 04:25:52;;;;;;;11.53;10.53;;;5.00;44.20;;;;;;5070272;28;20508;-72
2021/03/19 04:28:22;;;;;;;11.37;10.43;;;5.10;43.40;;;;;;5071477;28;20540;-71
2021/03/19 04:30:48;;;;;;;10.83;9.93;;;5.10;43.30;;;;;;5071707;28;20167;-72
2021/03/19 04:33:20;;;;;;;11.63;10.53;;;4.90;44.10;;;;;;5071524;28;20456;-72
2021/03/19 04:36:18;;;;;;;12.13;11.00;;;5.10;43.70;;;;;;5071705;28;20900;-71
2021/03/19 04:38:44;;;;;;;11.10;10.10;;;5.00;43.40;;;;;;5048624;28;20793;-72
2021/03/19 04:41:10;;;;;;;10.83;9.83;;;4.80;44.50;;;;;;5055617;28;20444;-72
2021/03/19 04:43:36;;;;;;;11.90;10.70;;;4.60;44.10;;;;;;5051765;28;20403;-72
2021/03/19 04:46:01;;;;;;;10.40;9.50;;;4.60;44.30;;;;;;5051574;28;20176;-72
2021/03/19 04:48:27;;;;;;;12.67;10.40;;;4.40;45.20;;;;;;5051240;28;20497;-73
2021/03/19 04:50:52;;;;;;;10.80;10.00;;;4.60;44.80;;;;;;5059611;28;20191;-71
2021/03/19 04:53:18;;;;;;;11.97;10.87;;;4.90;44.70;;;;;;5052431;28;20215;-72
2021/03/19 04:55:44;;;;;;;11.27;10.27;;;5.00;43.80;;;;;;5063623;28;20179;-73
2021/03/19 04:58:09;;;;;;;10.43;9.53;;;5.20;43.40;;;;;;5066112;28;20194;-71
2021/03/19 05:00:35;;;;;;;11.43;10.30;;;5.00;42.70;;;;;;5071277;28;20628;-71
2021/03/19 05:03:00;;;;;;;11.03;10.03;;;4.80;43.10;;;;;;5051528;28;20582;-72
2021/03/19 05:05:29;;;;;;;10.63;9.63;;;4.70;44.00;;;;;;5051009;28;20558;-72
2021/03/19 05:07:56;;;;;;;11.23;10.30;;;4.80;43.60;;;;;;5050899;28;20306;-76
2021/03/19 05:10:24;;;;;;;9.60;8.70;;;4.90;43.80;;;;;;5051302;28;20426;-73
2021/03/19 05:12:50;;;;;;;10.70;9.90;;;5.20;42.00;;;;;;5051731;28;20553;-73
2021/03/19 05:15:17;;;;;;;10.67;9.57;;;5.20;42.80;;;;;;5050679;28;20552;-73
2021/03/19 05:17:42;;;;;;;10.50;9.50;;;5.10;43.90;;;;;;5049922;28;20187;-72
2021/03/19 05:20:11;;;;;;;12.47;11.47;;;5.40;42.80;;;;;;5050839;28;20414;-72
2021/03/19 05:22:37;;;;;;;10.57;9.60;;;5.30;43.90;;;;;;5050103;28;20288;-73
2021/03/19 05:25:04;;;;;;;11.67;10.57;;;5.50;41.90;;;;;;5050929;28;20423;-72
2021/03/19 05:27:29;;;;;;;10.80;9.80;;;5.20;43.50;;;;;;5050617;28;20893;-73
2021/03/19 05:29:55;;;;;;;10.00;9.20;;;5.40;44.30;;;;;;5050686;28;20410;-73
2021/03/19 05:32:22;;;;;;;10.57;9.60;;;5.80;42.40;;;;;;5050480;28;20219;-73
2021/03/19 05:34:48;;;;;;;11.43;10.23;;;6.10;40.50;;;;;;5050592;28;20254;-70
2021/03/19 05:37:15;;;;;;;10.73;9.83;;;6.40;39.60;;;;;;5050552;28;20552;-69
2021/03/19 05:39:40;;;;;;;10.33;9.33;;;6.30;39.50;;;;;;5050539;28;20427;-69
2021/03/19 05:42:20;;;;;;;10.27;9.17;;;6.00;40.80;;;;;;5060685;28;20440;-68
2021/03/19 05:44:49;;;;;;;10.83;9.93;;;6.40;39.60;;;;;;5070349;28;20179;-70
2021/03/19 05:47:15;;;;;;;14.20;11.60;;;6.40;40.10;;;;;;5063245;28;20407;-69
2021/03/19 05:49:40;;;;;;;12.03;11.03;;;6.40;40.70;;;;;;5049887;28;20406;-71
2021/03/19 05:52:09;;;;;;;11.13;10.10;;;6.30;40.20;;;;;;5050763;28;20595;-70
2021/03/19 05:54:34;;;;;;;12.90;11.70;;;6.20;40.70;;;;;;5063999;28;20248;-71
2021/03/19 05:57:00;;;;;;;9.77;8.97;;;6.30;40.90;;;;;;5070510;28;20434;-71
2021/03/19 05:59:27;;;;;;;11.40;10.40;;;6.30;40.40;;;;;;5069223;28;20172;-71
2021/03/19 06:01:52;;;;;;;10.67;9.67;;;6.30;41.10;;;;;;5059380;28;20621;-70
2021/03/19 06:04:21;;;;;;;11.67;10.57;;;6.30;39.50;;;;;;5054455;28;20451;-71
2021/03/19 06:06:46;;;;;;;11.43;10.30;;;6.20;40.40;;;;;;5057817;28;20180;-70
2021/03/19 06:09:37;;;;;;;11.97;10.87;;;6.30;41.00;;;;;;5049076;28;20945;-72
2021/03/19 06:12:17;;;;;;;12.10;11.10;;;6.40;40.70;;;;;;5057541;28;20213;-71
2021/03/19 06:14:55;;;;;;;12.60;11.47;;;6.10;42.50;;;;;;5070555;28;20505;-70
2021/03/19 06:17:30;;;;;;;11.73;10.83;;;6.10;41.70;;;;;;5061795;28;20405;-70
2021/03/19 06:20:02;;;;;;;11.30;10.37;;;6.20;41.70;;;;;;5050397;28;20405;-70
2021/03/19 06:22:48;;;;;;;14.93;10.70;;;6.40;40.80;;;;;;5050997;28;20429;-71
2021/03/19 06:25:27;;;;;;;14.17;11.37;;;6.30;42.00;;;;;;5054113;28;20405;-71
2021/03/19 06:27:59;;;;;;;13.17;11.90;;;6.40;41.40;;;;;;5053874;28;20404;-70
2021/03/19 06:30:30;;;;;;;11.13;10.13;;;6.20;42.30;;;;;;5053899;28;20454;-70
2021/03/19 06:33:13;;;;;;;12.67;11.53;;;6.20;41.80;;;;;;5053588;28;20466;-70
2021/03/19 06:35:42;;;;;;;12.40;11.20;;;6.20;42.70;;;;;;5053816;28;20505;-71
2021/03/19 06:38:35;;;;;;;13.20;11.83;;;6.10;42.80;;;;;;5053325;28;20520;-74
2021/03/19 06:41:23;;;;;;;11.63;9.43;;;6.10;44.30;;;;;;5053680;28;20497;-71
2021/03/19 06:43:50;;;;;;;10.90;9.80;;;9.20;62.60;;;;;;5053336;28;20426;-71
2021/03/19 06:46:22;;;;;;;12.03;11.03;;;9.60;46.90;;;;;;5060521;28;21008;-71
2021/03/19 06:48:53;;;;;;;12.80;11.70;;;9.10;47.00;;;;;;5062845;28;20444;-71
2021/03/19 06:51:41;;;;;;;11.83;10.63;;;9.20;43.70;;;;;;5053435;28;20398;-71
2021/03/19 06:54:11;;;;;;;12.00;11.07;;;9.40;41.50;;;;;;5053337;28;20472;-71
2021/03/19 06:56:39;;;;;;;12.53;11.40;;;9.80;39.60;;;;;;5053515;28;20410;-70
2021/03/19 06:59:24;;;;;;;10.80;10.00;;;9.10;42.70;;;;;;5052300;28;20403;-71
2021/03/19 07:01:50;;;;;;;10.50;9.10;;;9.20;40.60;;;;;;5052648;28;20477;-71
2021/03/19 07:04:32;;;;;;;12.27;11.17;;;9.20;41.90;;;;;;5053298;28;20770;-70
2021/03/19 07:07:21;;;;;;;11.87;10.87;;;9.10;40.20;;;;;;5053305;28;20402;-70
2021/03/19 07:10:07;;;;;;;14.07;12.87;;;8.60;37.90;;;;;;5053448;28;20414;-74
2021/03/19 07:12:42;;;;;;;13.73;11.07;;;7.70;39.10;;;;;;5053629;28;20434;-75
2021/03/19 07:15:32;;;;;;;14.40;13.00;;;7.70;39.20;;;;;;5053674;28;20520;-75
2021/03/19 07:18:17;;;;;;;13.70;12.50;;;7.40;39.30;;;;;;5054388;28;20491;-75
2021/03/19 07:21:16;;;;;;;14.57;13.33;;;7.20;39.90;;;;;;5073360;28;20390;-75
2021/03/19 07:24:28;;;;;;;14.80;13.50;;;6.80;40.70;;;;;;5072247;28;20412;-76
2021/03/19 07:27:00;;;;;;;15.03;13.73;;;6.60;42.80;;;;;;5071972;28;20422;-74
2021/03/19 07:29:40;;;;;;;15.43;13.93;;;6.60;42.90;;;;;;5073239;28;20894;-75
2021/03/19 07:32:17;;;;;;;14.83;13.50;;;6.40;43.80;;;;;;5073067;28;20451;-75
2021/03/19 07:35:12;;;;;;;15.93;14.43;;;6.60;42.90;;;;;;5072936;28;20459;-74
2021/03/19 07:37:56;;;;;;;17.13;15.47;;;6.30;43.90;;;;;;5052549;28;20781;-75
2021/03/19 07:40:45;;;;;;;17.57;15.47;;;6.30;44.80;;;;;;5052743;28;20426;-75
2021/03/19 07:43:31;;;;;;;14.80;13.50;;;6.50;44.70;;;;;;5052813;28;20434;-75
2021/03/19 07:46:14;;;;;;;17.37;15.70;;;6.70;43.30;;;;;;5067458;28;20479;-74
2021/03/19 07:49:01;;;;;;;17.20;15.60;;;6.70;43.40;;;;;;5053056;28;20409;-75
2021/03/19 07:51:38;;;;;;;16.30;14.80;;;6.70;43.10;;;;;;5059261;28;20439;-75
2021/03/19 07:54:44;;;;;;;14.20;12.63;;;6.70;43.30;;;;;;5072493;28;20451;-75
2021/03/19 07:57:20;;;;;;;15.27;13.63;;;6.60;43.60;;;;;;5051935;28;20447;-77
2021/03/19 08:00:03;;;;;;;15.33;14.00;;;6.50;46.00;;;;;;5071324;28;20412;-75
2021/03/19 08:03:05;;;;;;;14.97;13.57;;;6.70;43.40;;;;;;5052212;28;20447;-75
2021/03/19 08:05:33;;;;;;;14.90;13.63;;;6.60;43.70;;;;;;5039663;28;20418;-74
2021/03/19 08:08:02;;;;;;;15.23;13.90;;;6.40;45.40;;;;;;5052555;28;20449;-74
2021/03/19 08:10:32;;;;;;;15.50;14.00;;;6.50;45.30;;;;;;5060975;28;20414;-74
2021/03/19 08:13:22;;;;;;;17.70;14.67;;;6.60;44.50;;;;;;5053895;28;20453;-75
2021/03/19 08:15:59;;;;;;;13.40;12.10;;;6.50;45.90;;;;;;5051796;28;20437;-74
2021/03/19 08:18:30;;;;;;;14.83;13.20;;;6.50;44.50;;;;;;5055548;28;20405;-73
2021/03/19 08:21:30;;;;;;;12.43;11.33;;;6.40;45.80;;;;;;5072460;28;20403;-71
2021/03/19 08:24:07;;;;;;;12.40;11.10;;;6.60;44.10;;;;;;5070958;28;20424;-68
2021/03/19 08:26:44;;;;;;;11.50;10.47;;;6.50;44.10;;;;;;5072621;28;20413;-69
2021/03/19 08:29:25;;;;;;;13.70;12.43;;;6.60;44.30;;;;;;5072376;28;20461;-70
2021/03/19 08:32:15;;;;;;;13.33;12.00;;;6.60;44.90;;;;;;5072911;28;20458;-70
2021/03/19 08:34:53;;;;;;;12.60;11.40;;;6.70;43.90;;;;;;5072357;28;20978;-72
2021/03/19 08:37:48;;;;;;;15.80;13.00;;;6.70;44.00;;;;;;5070853;28;20514;-71
2021/03/19 08:40:37;;;;;;;12.27;11.10;;;6.80;44.00;;;;;;5071930;28;20502;-73
2021/03/19 08:43:07;;;;;;;12.40;11.30;;;6.90;44.50;;;;;;5071582;28;20437;-72
2021/03/19 08:45:33;;;;;;;13.20;12.00;;;6.80;44.20;;;;;;5071616;28;20408;-71
2021/03/19 08:48:03;;;;;;;13.13;11.93;;;6.70;44.20;;;;;;5071779;28;20400;-70
2021/03/19 08:50:37;;;;;;;11.63;10.47;;;6.70;45.50;;;;;;5071412;28;20850;-71
2021/03/19 08:53:07;;;;;;;12.50;11.40;;;6.80;45.30;;;;;;5071153;28;20452;-73
2021/03/19 08:55:35;;;;;;;12.40;11.20;;;7.00;44.90;;;;;;5071132;28;20494;-72
2021/03/19 08:58:43;;;;;;;13.03;11.73;;;6.90;45.00;;;;;;5070989;28;20412;-73
2021/03/19 09:01:09;;;;;;;11.63;10.53;;;6.80;45.00;;;;;;5065122;28;20447;-69
2021/03/19 09:03:39;;;;;;;12.80;11.57;;;6.90;44.80;;;;;;5070979;28;20408;-72
2021/03/19 09:06:04;;;;;;;11.77;10.57;;;6.70;45.20;;;;;;5071019;28;20402;-70
2021/03/19 09:09:05;;;;;;;12.50;11.30;;;6.80;45.50;;;;;;5070650;28;20408;-68
2021/03/19 09:11:36;;;;;;;13.37;12.10;;;6.80;44.50;;;;;;5070755;28;20201;-71
2021/03/19 09:14:02;;;;;;;12.93;11.70;;;6.80;45.00;;;;;;5070916;28;20461;-71
2021/03/19 09:16:48;;;;;;;13.73;12.23;;;6.70;45.00;;;;;;5070880;28;20413;-72
2021/03/19 09:19:32;;;;;;;13.87;12.47;;;6.70;45.60;;;;;;5069280;28;20428;-72
2021/03/19 09:22:19;;;;;;;11.80;10.60;;;6.80;45.50;;;;;;5070740;28;20960;-71
2021/03/19 09:25:14;;;;;;;11.83;10.80;;;6.80;44.90;;;;;;5069397;28;20500;-70
2021/03/19 09:27:47;;;;;;;10.73;9.83;;;6.90;42.60;;;;;;5071000;28;20906;-71
2021/03/19 09:30:22;;;;;;;10.97;9.87;;;7.00;43.00;;;;;;5070799;28;20412;-70
2021/03/19 09:32:53;;;;;;;13.00;11.70;;;6.80;43.30;;;;;;5070696;28;20452;-70
2021/03/19 09:35:39;;;;;;;11.03;10.03;;;6.80;42.50;;;;;;5070926;28;20404;-70
2021/03/19 09:38:11;;;;;;;12.03;11.03;;;7.10;44.60;;;;;;5070390;28;20428;-69
2021/03/19 09:40:53;;;;;;;10.40;9.50;;;7.10;42.70;;;;;;5069584;28;20473;-70
2021/03/19 09:43:42;;;;;;;11.00;10.00;;;7.00;42.80;;;;;;5069320;28;20868;-68
2021/03/19 09:46:17;;;;;;;8.90;8.17;;;7.00;40.90;;;;;;5070630;28;20408;-69
2021/03/19 09:49:24;;;;;;;11.17;9.73;;;7.10;40.20;;;;;;5070369;28;20413;-70
2021/03/19 09:51:50;;;;;;;11.73;10.10;;;6.90;39.80;;;;;;5064485;28;20436;-70
2021/03/19 09:54:22;;;;;;;10.93;9.93;;;6.90;40.60;;;;;;5070436;28;20503;-69
2021/03/19 09:56:48;;;;;;;11.57;10.67;;;7.00;40.30;;;;;;5070660;28;20174;-69
2021/03/19 09:59:26;;;;;;;10.67;9.67;;;6.90;40.00;;;;;;5073997;28;20411;-70
2021/03/19 10:01:52;;;;;;;11.27;10.07;;;6.90;39.40;;;;;;5064366;28;20449;-71
2021/03/19 10:04:31;;;;;;;10.93;9.83;;;7.00;40.10;;;;;;5070055;28;20422;-70
2021/03/19 10:06:57;;;;;;;11.53;10.43;;;7.20;39.80;;;;;;5058298;28;20428;-70
2021/03/19 10:09:47;;;;;;;10.77;9.67;;;7.10;40.10;;;;;;5055061;28;20514;-69
2021/03/19 10:12:32;;;;;;;10.00;9.10;;;7.30;40.30;;;;;;5054738;28;20444;-71
2021/03/19 10:15:11;;;;;;;8.60;7.90;;;7.50;39.20;;;;;;5073951;28;20417;-69
2021/03/19 10:17:37;;;;;;;9.10;8.20;;;7.30;38.60;;;;;;5073830;28;20949;-70
2021/03/19 10:20:14;;;;;;;9.30;8.50;;;7.20;36.70;;;;;;5073465;28;20405;-72
2021/03/19 10:22:43;;;;;;;13.67;12.37;;;7.20;38.30;;;;;;5063815;28;20205;-73
2021/03/19 10:25:20;;;;;;;12.60;10.67;;;7.30;39.80;;;;;;5053808;28;20406;-72
2021/03/19 10:27:47;;;;;;;11.53;10.43;;;7.30;40.30;;;;;;5053287;28;20406;-70
2021/03/19 10:30:27;;;;;;;9.87;8.97;;;7.30;38.60;;;;;;5053824;28;20491;-71
2021/03/19 10:32:56;;;;;;;9.77;9.00;;;7.30;38.90;;;;;;5053618;28;20456;-69
2021/03/19 10:35:31;;;;;;;9.30;8.50;;;7.20;38.80;;;;;;5053601;28;20944;-72
2021/03/19 10:38:06;;;;;;;9.20;8.40;;;7.20;38.90;;;;;;5053456;28;20923;-71
2021/03/19 10:40:38;;;;;;;10.87;9.80;;;7.20;40.20;;;;;;5053343;28;20406;-71
2021/03/19 10:43:15;;;;;;;9.73;8.87;;;7.20;40.20;;;;;;5053009;28;20428;-71
2021/03/19 10:45:43;;;;;;;9.77;8.87;;;7.20;42.00;;;;;;5059682;28;20827;-72
2021/03/19 10:48:23;;;;;;;9.13;8.40;;;7.20;42.50;;;;;;5072819;28;20405;-74
2021/03/19 10:50:57;;;;;;;8.27;7.60;;;7.10;42.00;;;;;;5071449;28;20420;-70
2021/03/19 10:53:35;;;;;;;8.63;7.93;;;7.20;40.90;;;;;;5071589;28;20488;-71
2021/03/19 10:56:01;;;;;;;10.13;8.77;;;7.30;41.60;;;;;;5069307;28;20935;-71
2021/03/19 10:58:33;;;;;;;8.60;7.90;;;7.30;42.50;;;;;;5054397;28;20437;-72
2021/03/19 11:00:59;;;;;;;7.20;6.60;;;7.40;41.60;;;;;;5063456;28;20809;-72
2021/03/19 11:03:31;;;;;;;6.67;6.17;;;7.20;40.20;;;;;;5056929;28;20437;-72
2021/03/19 11:06:06;;;;;;;9.60;8.80;;;7.30;40.70;;;;;;5072366;28;20508;-71
2021/03/19 11:08:32;;;;;;;7.13;6.57;;;7.40;39.70;;;;;;5057190;28;20452;-73
2021/03/19 11:10:58;;;;;;;6.70;6.20;;;7.40;39.30;;;;;;5052434;28;20844;-72
2021/03/19 11:13:30;;;;;;;6.07;5.57;;;7.40;39.30;;;;;;5071659;28;20256;-68
2021/03/19 11:16:03;;;;;;;6.10;5.60;;;7.50;41.30;;;;;;5072049;28;20767;-70
2021/03/19 11:18:36;;;;;;;5.30;4.90;;;7.30;39.10;;;;;;5052300;28;20434;-70
2021/03/19 11:21:08;;;;;;;5.10;4.80;;;7.30;39.30;;;;;;5052682;28;20438;-70
2021/03/19 11:23:39;;;;;;;5.80;5.30;;;7.40;39.10;;;;;;5064633;28;20429;-71
2021/03/19 11:26:26;;;;;;;5.50;5.20;;;7.20;38.60;;;;;;5052476;28;20948;-71
2021/03/19 11:29:30;;;;;;;5.73;5.20;;;7.20;39.60;;;;;;5072510;28;20412;-72
2021/03/19 11:32:04;;;;;;;5.20;4.80;;;7.40;39.10;;;;;;5044155;28;20855;-70
2021/03/19 11:34:37;;;;;;;5.17;4.77;;;7.40;37.90;;;;;;5052280;28;20461;-70
2021/03/19 11:37:27;;;;;;;5.77;5.37;;;7.40;37.90;;;;;;5052712;28;20926;-70
2021/03/19 11:40:19;;;;;;;5.30;4.90;;;7.40;38.30;;;;;;5064195;28;20470;-69
2021/03/19 11:42:47;;;;;;;4.37;4.07;;;7.20;37.30;;;;;;5071534;28;20463;-70
2021/03/19 11:45:21;;;;;;;6.17;5.67;;;7.10;37.60;;;;;;5071925;28;20497;-70
2021/03/19 11:48:08;;;;;;;5.83;5.37;;;7.40;38.90;;;;;;5071887;28;20803;-70
2021/03/19 11:50:39;;;;;;;6.00;5.57;;;7.50;38.10;;;;;;5068537;28;20471;-70
2021/03/19 11:53:09;;;;;;;5.50;5.10;;;7.30;36.70;;;;;;5065979;28;20462;-70
2021/03/19 11:55:38;;;;;;;6.30;5.80;;;7.40;38.00;;;;;;5064903;28;20435;-71
2021/03/19 11:58:04;;;;;;;6.03;5.53;;;7.20;38.10;;;;;;5055217;28;20425;-70
2021/03/19 12:00:33;;;;;;;5.97;5.47;;;7.10;38.90;;;;;;5052045;28;20418;-71
2021/03/19 12:03:02;;;;;;;6.23;5.73;;;6.90;39.20;;;;;;5051966;28;20429;-72
2021/03/19 12:05:30;;;;;;;9.00;8.13;;;7.10;38.80;;;;;;5051974;28;20410;-68
2021/03/19 12:07:56;;;;;;;7.50;6.90;;;7.10;38.80;;;;;;5052021;28;20403;-72
2021/03/19 12:10:27;;;;;;;7.97;7.37;;;6.90;38.50;;;;;;5071672;28;20493;-71
2021/03/19 12:12:53;;;;;;;7.80;7.10;;;6.80;37.80;;;;;;5071928;28;20461;-70
2021/03/19 12:15:19;;;;;;;7.73;6.97;;;7.00;38.30;;;;;;5071866;28;20488;-69
2021/03/19 12:17:45;;;;;;;7.50;6.90;;;7.20;36.40;;;;;;5071723;28;20463;-69
2021/03/19 12:20:12;;;;;;;11.63;7.67;;;7.10;36.70;;;;;;5070925;28;20412;-72
2021/03/19 12:22:40;;;;;;;8.70;7.43;;;7.00;35.70;;;;;;5071767;28;20424;-71
2021/03/19 12:25:07;;;;;;;8.03;7.30;;;7.10;36.30;;;;;;5071694;28;20822;-71
2021/03/19 12:27:32;;;;;;;8.17;7.47;;;7.00;38.70;;;;;;5070599;28;20448;-71
2021/03/19 12:29:58;;;;;;;8.77;8.07;;;7.00;38.80;;;;;;5071706;28;20443;-70
2021/03/19 12:32:23;;;;;;;8.90;8.20;;;7.00;39.00;;;;;;5071854;28;20230;-72
2021/03/19 12:34:49;;;;;;;8.23;7.50;;;7.00;39.90;;;;;;5071716;28;20673;-69
2021/03/19 12:37:15;;;;;;;8.97;8.20;;;7.00;39.20;;;;;;5070906;28;20180;-70
2021/03/19 12:39:40;;;;;;;9.27;8.40;;;7.10;39.70;;;;;;5071395;28;20171;-72
2021/03/19 12:42:06;;;;;;;8.93;8.10;;;7.10;38.80;;;;;;5071367;28;20426;-71
2021/03/19 12:44:32;;;;;;;10.50;9.60;;;7.10;38.20;;;;;;5071428;28;20188;-71
2021/03/19 12:46:58;;;;;;;11.17;10.10;;;7.00;37.90;;;;;;5071171;28;20402;-68
2021/03/19 12:49:24;;;;;;;11.23;10.10;;;6.80;38.20;;;;;;5071798;28;20250;-72
2021/03/19 12:51:50;;;;;;;12.20;10.80;;;6.70;39.30;;;;;;5071236;28;20476;-72
2021/03/19 12:54:16;;;;;;;11.27;10.17;;;6.80;39.20;;;;;;5060342;28;20218;-70
2021/03/19 12:56:41;;;;;;;10.93;9.83;;;6.90;40.40;;;;;;5051274;28;20413;-71
2021/03/19 12:59:07;;;;;;;12.30;11.00;;;6.90;39.60;;;;;;5049878;28;20501;-71
2021/03/19 13:01:32;;;;;;;12.40;10.33;;;6.80;39.90;;;;;;5051201;28;20765;-71
2021/03/19 13:03:58;;;;;;;12.97;11.67;;;6.80;39.90;;;;;;5051558;28;20646;-72
2021/03/19 13:06:24;;;;;;;12.53;11.23;;;6.80;40.00;;;;;;5051404;28;20183;-68
2021/03/19 13:08:50;;;;;;;13.07;11.73;;;6.70;40.30;;;;;;5050794;28;20179;-68
2021/03/19 13:11:17;;;;;;;13.00;11.73;;;6.80;38.60;;;;;;5051044;28;20600;-68
2021/03/19 13:13:43;;;;;;;12.40;11.10;;;7.20;38.80;;;;;;5051467;28;20474;-73
2021/03/19 13:16:09;;;;;;;13.50;11.40;;;7.30;37.00;;;;;;5051247;28;20414;-73
2021/03/19 13:18:35;;;;;;;11.30;10.30;;;7.20;37.80;;;;;;5051052;28;20497;-73
2021/03/19 13:21:01;;;;;;;15.20;11.97;;;7.10;36.50;;;;;;5050935;28;20500;-72